メインページ
METAR-TAF:

METAR-TAF

空港 :

コルツォヴォ国際空港

エカテリンブルク, ロシア

緯度: 56-50N, 経度: 060-38E, 海抜: 237m

現時点の気象観測

当レポートは23分前の23:30(UTC)に作成
無風
気温 12°C
湿度 100%
気圧 1016 hPa
視程: 9000m
浅い霧

METAR: USSS 162330Z 00000MPS 9000 MIFG NSC 12/12 Q1016 R26L/010060 R26R/010060 TEMPO 0300 FG VV002 RMK QFE741/0988

時間: 04:53 (23:53 UTC)

予報

当レポートは58分前の22:55(UTC)に作成
予報は17日の 00時(UTC)から 17日の 24時(UTC)まで有効
東/南東の風 6kt
視程: 5000m
高度4000ftの雲は散在している
17日の 00時(UTC)から 17日の 02時(UTC)まで一時的に
視程: 0300m
高度200ftの
17日の 02時(UTC)から 17日の 03時(UTC)まで徐々に
東/南東の風 6kt、最大16ktの突風を伴う
視程10km以上

TAF: USSS 162255Z 1700/1724 11003MPS 5000 BR SCT040 TEMPO 1700/1702 0300 FG VV002 BECMG 1702/1703 12003G08MPS 9999 NSW

4,000以上の空港の気象観測と天気予報(METAR報とTAF報)

利用可能な観測所は地図上に黄色い丸と赤い丸で示す。

丸の上にカーソルを重ねると観測所名を参照できる。

次にクリックすると気象観測と天気予報を参照できる。

マップの切り替え:黒色「×」印の緑ボタンをクリックして拡大、「-」印の緑ボタンをクリックして縮小、緑色の三角印をクリックして隣りの地図に切り替え


METAR-TAF: